createdAt,value
2018-12-20T00:00:45.612Z,86.93
2018-12-20T00:03:14.337Z,72.40
2018-12-20T00:05:43.115Z,70.63
2018-12-20T00:08:11.788Z,80.77
2018-12-20T00:10:40.446Z,88.27
2018-12-20T00:13:09.302Z,74.37
2018-12-20T00:15:37.955Z,82.73
2018-12-20T00:18:06.700Z,78.53
2018-12-20T00:20:35.312Z,102.83
2018-12-20T00:23:04.059Z,72.17
2018-12-20T00:25:33.367Z,70.33
2018-12-20T00:28:01.963Z,76.73
2018-12-20T00:30:30.824Z,88.53
2018-12-20T00:32:59.601Z,100.63
2018-12-20T00:35:28.276Z,74.67
2018-12-20T00:37:56.863Z,77.77
2018-12-20T00:40:25.620Z,74.73
2018-12-20T00:42:54.422Z,80.07
2018-12-20T00:45:23.051Z,68.10
2018-12-20T00:47:51.607Z,79.27
2018-12-20T00:50:20.167Z,76.37
2018-12-20T00:52:48.688Z,85.03
2018-12-20T00:55:17.249Z,75.80
2018-12-20T00:57:45.818Z,78.40
2018-12-20T01:00:14.947Z,89.27
2018-12-20T01:02:43.688Z,85.00
2018-12-20T01:05:12.578Z,90.30
2018-12-20T01:07:41.143Z,76.60
2018-12-20T01:10:09.850Z,82.43
2018-12-20T01:12:38.538Z,82.27
2018-12-20T01:15:07.398Z,101.07
2018-12-20T01:17:38.853Z,82.40
2018-12-20T01:20:09.601Z,79.47
2018-12-20T01:22:38.442Z,81.07
2018-12-20T01:25:07.460Z,85.17
2018-12-20T01:27:36.268Z,81.83
2018-12-20T01:30:06.314Z,86.67
2018-12-20T01:32:35.145Z,79.93
2018-12-20T01:35:04.250Z,86.97
2018-12-20T01:37:33.044Z,82.77
2018-12-20T01:40:01.705Z,80.50
2018-12-20T01:42:30.274Z,72.07
2018-12-20T01:44:58.990Z,77.07
2018-12-20T01:48:30.857Z,75.87
2018-12-20T01:51:01.041Z,77.27
2018-12-20T01:53:29.619Z,82.83
2018-12-20T01:55:58.447Z,82.37
2018-12-20T01:58:27.006Z,74.50
2018-12-20T02:00:55.821Z,89.97
2018-12-20T02:03:24.427Z,95.83
2018-12-20T02:05:52.978Z,95.03
2018-12-20T02:08:21.766Z,94.43
2018-12-20T02:10:50.400Z,93.57
2018-12-20T02:13:19.154Z,86.00
2018-12-20T02:15:47.894Z,88.90
2018-12-20T02:18:16.487Z,90.07
2018-12-20T02:20:45.161Z,101.33
2018-12-20T02:23:13.695Z,90.90
2018-12-20T02:25:42.378Z,89.90
2018-12-20T02:28:10.933Z,94.07
2018-12-20T02:30:39.515Z,92.97
2018-12-20T02:33:08.290Z,97.67
2018-12-20T02:35:37.061Z,94.37
2018-12-20T02:38:05.688Z,77.47
2018-12-20T02:40:34.665Z,77.27
2018-12-20T02:43:04.242Z,82.30
2018-12-20T02:45:33.083Z,76.67
2018-12-20T02:48:02.016Z,81.47
2018-12-20T02:50:31.522Z,76.83
2018-12-20T02:53:00.110Z,83.40
2018-12-20T02:55:28.783Z,81.17
2018-12-20T02:57:57.339Z,70.63
2018-12-20T03:00:25.924Z,78.30
2018-12-20T03:02:54.485Z,71.60
2018-12-20T03:05:23.259Z,91.47
2018-12-20T03:07:51.968Z,82.40
2018-12-20T03:10:20.787Z,79.33
2018-12-20T03:12:50.256Z,77.77
2018-12-20T03:15:20.070Z,87.07
2018-12-20T03:17:49.137Z,80.50
2018-12-20T03:20:17.677Z,72.70
2018-12-20T03:22:46.289Z,76.33
2018-12-20T03:25:14.870Z,77.87
2018-12-20T03:27:43.433Z,85.07
2018-12-20T03:30:12.302Z,74.77
2018-12-20T03:32:40.854Z,84.73
2018-12-20T03:35:09.792Z,82.73
2018-12-20T03:37:38.573Z,79.70
2018-12-20T03:40:07.548Z,73.33
2018-12-20T03:42:36.265Z,81.90
2018-12-20T03:45:05.314Z,75.53
2018-12-20T03:47:34.170Z,80.43
2018-12-20T03:50:03.063Z,83.70
2018-12-20T03:52:31.755Z,72.13
2018-12-20T03:55:00.395Z,84.07
2018-12-20T03:57:29.108Z,77.33
2018-12-20T03:59:57.744Z,74.33
2018-12-20T04:02:26.412Z,80.80
2018-12-20T04:04:55.081Z,71.37
2018-12-20T04:07:23.919Z,73.30
2018-12-20T04:09:52.563Z,71.17
2018-12-20T04:12:21.212Z,69.43
2018-12-20T04:14:50.235Z,80.10
2018-12-20T04:17:19.363Z,77.73
2018-12-20T04:19:48.000Z,77.93
2018-12-20T04:22:16.571Z,76.67
2018-12-20T04:24:45.092Z,72.27
2018-12-20T04:27:13.738Z,69.03
2018-12-20T04:29:42.353Z,98.70
2018-12-20T04:32:10.924Z,79.20
2018-12-20T04:34:39.544Z,87.17
2018-12-20T04:37:08.100Z,84.23
2018-12-20T04:39:36.952Z,73.23
2018-12-20T04:42:05.532Z,77.23
2018-12-20T04:44:34.120Z,79.77
2018-12-20T04:47:02.730Z,75.27
2018-12-20T04:49:31.399Z,73.27
2018-12-20T04:52:00.324Z,80.77
2018-12-20T04:54:29.057Z,72.37
2018-12-20T04:56:57.860Z,70.37
2018-12-20T04:59:26.444Z,74.03
2018-12-20T05:01:55.341Z,70.17
2018-12-20T05:04:24.700Z,76.40
2018-12-20T05:06:53.234Z,83.40
2018-12-20T05:09:21.828Z,88.87
2018-12-20T05:11:50.580Z,82.13
2018-12-20T05:14:19.208Z,74.93
2018-12-20T05:16:47.826Z,78.33
2018-12-20T05:19:16.363Z,89.40
2018-12-20T05:21:44.882Z,83.93
2018-12-20T05:24:13.511Z,82.57
2018-12-20T05:26:42.038Z,79.63
2018-12-20T05:29:10.650Z,87.23
2018-12-20T05:31:39.501Z,82.53
2018-12-20T05:34:08.313Z,83.43
2018-12-20T05:36:37.388Z,78.63
2018-12-20T05:39:07.605Z,84.13
2018-12-20T05:41:36.306Z,88.10
2018-12-20T05:44:05.020Z,91.73
2018-12-20T05:46:33.865Z,76.77
2018-12-20T05:49:02.629Z,79.20
2018-12-20T05:51:31.307Z,76.50
2018-12-20T05:53:59.893Z,78.40
2018-12-20T05:56:30.081Z,91.00
2018-12-20T05:58:58.618Z,91.07
2018-12-20T06:01:27.233Z,83.00
2018-12-20T06:03:55.854Z,125.63
2018-12-20T06:06:24.661Z,115.43
2018-12-20T06:08:53.269Z,105.77
2018-12-20T06:11:21.831Z,87.20
2018-12-20T06:13:50.390Z,85.33
2018-12-20T06:16:19.092Z,94.73
2018-12-20T06:18:47.733Z,76.93
2018-12-20T06:21:16.285Z,70.13
2018-12-20T06:23:44.825Z,89.43
2018-12-20T06:26:13.373Z,80.00
2018-12-20T06:28:42.126Z,80.77
2018-12-20T06:31:10.685Z,77.43
2018-12-20T06:33:40.993Z,76.43
2018-12-20T06:36:09.605Z,79.40
2018-12-20T06:38:38.146Z,76.13
2018-12-20T06:41:06.682Z,88.03
2018-12-20T06:43:35.941Z,72.43
2018-12-20T06:46:04.605Z,78.27
2018-12-20T06:48:33.220Z,86.23
2018-12-20T06:51:01.778Z,80.60
2018-12-20T06:53:30.329Z,73.30
2018-12-20T06:56:00.525Z,83.33
2018-12-20T06:58:29.098Z,85.23
2018-12-20T07:00:57.657Z,70.70
2018-12-20T07:03:26.321Z,79.10
2018-12-20T07:05:54.881Z,91.43
2018-12-20T07:08:23.414Z,83.27
2018-12-20T07:10:52.226Z,86.93
2018-12-20T07:13:20.766Z,93.60
2018-12-20T07:15:49.357Z,77.60
2018-12-20T07:18:17.933Z,88.47
2018-12-20T07:20:46.485Z,81.03
2018-12-20T07:23:15.121Z,82.20
2018-12-20T07:25:43.668Z,84.57
2018-12-20T07:28:12.253Z,75.70
2018-12-20T07:30:40.933Z,87.53
2018-12-20T07:33:09.465Z,88.07
2018-12-20T07:35:38.029Z,90.63
2018-12-20T07:38:06.802Z,76.93
2018-12-20T07:40:35.381Z,90.63
2018-12-20T07:43:03.910Z,83.80
2018-12-20T07:45:32.440Z,81.03
2018-12-20T07:48:00.988Z,68.73
2018-12-20T07:50:29.552Z,85.43
2018-12-20T07:52:58.073Z,88.20
2018-12-20T07:55:26.588Z,80.77
2018-12-20T07:57:55.128Z,81.27
2018-12-20T08:00:23.668Z,85.43
2018-12-20T08:02:52.197Z,75.77
2018-12-20T08:05:20.728Z,81.60
2018-12-20T08:07:49.980Z,79.83
2018-12-20T08:10:18.544Z,87.03
2018-12-20T08:12:47.084Z,102.60
2018-12-20T08:15:15.632Z,95.37
2018-12-20T08:17:44.224Z,83.57
2018-12-20T08:20:12.788Z,95.30
2018-12-20T08:22:41.328Z,91.97
2018-12-20T08:25:09.909Z,102.10
2018-12-20T08:27:38.488Z,99.87
2018-12-20T08:30:07.992Z,100.03
2018-12-20T08:32:36.555Z,103.63
2018-12-20T08:35:05.148Z,101.53
2018-12-20T08:37:33.695Z,94.07
2018-12-20T08:40:02.372Z,83.10
2018-12-20T08:42:30.936Z,95.23
2018-12-20T08:44:59.454Z,88.20
2018-12-20T08:47:28.061Z,84.23
2018-12-20T08:49:56.608Z,86.07
2018-12-20T08:52:25.173Z,89.73
2018-12-20T08:54:53.749Z,87.57
2018-12-20T08:57:22.500Z,91.00
2018-12-20T08:59:51.044Z,92.03
2018-12-20T09:02:19.627Z,87.17
2018-12-20T09:04:48.711Z,82.10
2018-12-20T09:07:17.267Z,89.67
2018-12-20T09:09:45.787Z,92.37
2018-12-20T09:12:14.319Z,94.77
2018-12-20T09:14:42.896Z,78.47
2018-12-20T09:17:11.467Z,78.53
2018-12-20T09:19:40.003Z,80.30
2018-12-20T09:22:08.543Z,73.87
2018-12-20T09:24:37.091Z,83.80
2018-12-20T09:27:05.664Z,82.50
2018-12-20T09:29:34.216Z,91.07
2018-12-20T09:32:02.817Z,86.67
2018-12-20T09:34:31.491Z,88.13
2018-12-20T09:37:00.747Z,82.23
2018-12-20T09:39:29.439Z,87.83
2018-12-20T09:41:58.010Z,77.50
2018-12-20T09:44:26.607Z,87.17
2018-12-20T09:46:59.404Z,91.13
2018-12-20T09:49:28.067Z,78.70
2018-12-20T09:51:56.631Z,79.87
2018-12-20T09:54:25.207Z,101.70
2018-12-20T09:56:53.792Z,105.27
2018-12-20T09:59:22.315Z,90.00
2018-12-20T10:01:50.850Z,92.53
2018-12-20T10:04:19.383Z,79.63
2018-12-20T10:06:47.910Z,85.20
2018-12-20T10:09:16.567Z,87.47
2018-12-20T10:11:45.123Z,87.17
2018-12-20T10:14:13.679Z,88.50
2018-12-20T10:16:42.251Z,83.10
2018-12-20T10:19:10.802Z,89.03
2018-12-20T10:21:39.506Z,85.03
2018-12-20T10:24:08.127Z,91.00
2018-12-20T10:26:36.710Z,87.87
2018-12-20T10:29:05.279Z,92.30
2018-12-20T10:31:33.818Z,103.57
2018-12-20T10:34:02.419Z,128.57
2018-12-20T10:36:30.978Z,111.63
2018-12-20T10:38:59.494Z,88.87
2018-12-20T10:41:28.022Z,98.40
2018-12-20T10:43:56.591Z,92.70
2018-12-20T10:46:25.152Z,91.67
2018-12-20T10:48:53.717Z,106.53
2018-12-20T10:51:22.258Z,85.77
2018-12-20T10:53:50.906Z,106.47
2018-12-20T10:56:19.490Z,105.40
2018-12-20T10:58:48.050Z,101.33
2018-12-20T11:03:28.869Z,141.67
2018-12-20T11:06:00.919Z,103.00
2018-12-20T11:08:30.309Z,104.13
2018-12-20T11:11:04.986Z,125.83
2018-12-20T11:13:33.569Z,106.33
2018-12-20T11:16:02.238Z,118.10
2018-12-20T11:18:30.809Z,109.17
2018-12-20T11:20:59.577Z,102.53
2018-12-20T11:23:28.208Z,121.17
2018-12-20T11:25:56.797Z,117.73
2018-12-20T11:28:25.353Z,99.57
2018-12-20T11:30:53.889Z,116.47
2018-12-20T11:33:22.517Z,114.77
2018-12-20T11:35:51.094Z,110.90
2018-12-20T11:38:19.641Z,105.43
2018-12-20T11:40:48.181Z,109.70
2018-12-20T11:43:16.722Z,109.07
2018-12-20T11:45:45.265Z,115.60
2018-12-20T11:48:13.797Z,114.53
2018-12-20T11:50:42.325Z,106.23
2018-12-20T11:53:10.895Z,121.67
2018-12-20T11:55:39.461Z,114.13
2018-12-20T11:58:08.017Z,122.93
2018-12-20T12:00:37.134Z,139.83
2018-12-20T12:03:06.017Z,121.13
2018-12-20T12:05:34.559Z,112.73
2018-12-20T12:08:03.141Z,133.83
2018-12-20T12:10:31.677Z,107.97
2018-12-20T12:13:00.216Z,105.37
2018-12-20T12:15:28.761Z,109.87
2018-12-20T12:17:57.288Z,113.57
2018-12-20T12:20:26.808Z,102.03
2018-12-20T12:22:55.466Z,101.33
2018-12-20T12:25:24.120Z,99.63
2018-12-20T12:27:52.652Z,101.83
2018-12-20T12:30:21.193Z,114.70
2018-12-20T12:32:49.752Z,111.50
2018-12-20T12:35:18.421Z,119.40
2018-12-20T12:37:46.964Z,116.27
2018-12-20T12:42:50.273Z,109.27
2018-12-20T12:45:18.844Z,114.47
2018-12-20T12:47:52.848Z,119.43
2018-12-20T12:50:21.395Z,107.23
2018-12-20T12:52:49.952Z,118.10
2018-12-20T12:55:18.499Z,114.40
2018-12-20T12:57:47.056Z,110.67
2018-12-20T13:00:20.624Z,117.43
2018-12-20T13:02:49.220Z,127.00
2018-12-20T13:05:18.164Z,126.00
2018-12-20T13:07:46.695Z,124.03
2018-12-20T13:10:15.279Z,115.80
2018-12-20T13:12:43.815Z,113.57
2018-12-20T13:15:12.523Z,116.07
2018-12-20T13:17:41.044Z,114.90
2018-12-20T13:20:10.683Z,126.50
2018-12-20T13:22:39.223Z,115.40
2018-12-20T13:25:08.387Z,110.17
2018-12-20T13:27:36.927Z,113.63
2018-12-20T13:30:09.496Z,129.57
2018-12-20T13:32:38.071Z,128.37
2018-12-20T13:35:06.583Z,132.07
2018-12-20T13:37:35.255Z,154.07
2018-12-20T13:40:04.323Z,130.50
2018-12-20T13:42:33.504Z,137.10
2018-12-20T13:45:02.059Z,135.20
2018-12-20T13:47:30.665Z,121.97
2018-12-20T13:49:59.218Z,116.73
2018-12-20T13:52:27.746Z,123.10
2018-12-20T13:54:56.261Z,129.47
2018-12-20T13:57:24.786Z,131.83
2018-12-20T13:59:53.338Z,402.33
2018-12-20T14:02:21.873Z,240.13
2018-12-20T14:04:50.428Z,211.23
2018-12-20T14:07:19.105Z,172.80
2018-12-20T14:09:47.657Z,260.67
2018-12-20T14:12:16.221Z,389.13
2018-12-20T14:14:44.765Z,215.63
2018-12-20T14:17:13.305Z,186.03
2018-12-20T14:19:41.852Z,169.90
2018-12-20T14:22:10.510Z,197.07
2018-12-20T14:24:39.048Z,185.30
2018-12-20T14:27:08.457Z,139.33
2018-12-20T14:29:37.040Z,157.07
2018-12-20T14:32:06.738Z,159.47
2018-12-20T14:34:35.536Z,175.60
2018-12-20T14:37:04.136Z,237.33
2018-12-20T14:39:32.686Z,162.50
2018-12-20T14:42:01.280Z,233.93
2018-12-20T14:44:29.852Z,183.80
2018-12-20T14:46:58.472Z,160.00
2018-12-20T14:49:27.079Z,169.60
2018-12-20T14:51:55.640Z,188.30
2018-12-20T14:54:24.415Z,309.50
2018-12-20T14:56:52.987Z,316.43
2018-12-20T14:59:21.586Z,285.53
2018-12-20T15:01:50.167Z,186.30
2018-12-20T15:04:18.779Z,295.80
2018-12-20T15:06:47.311Z,138.40
2018-12-20T15:09:15.827Z,168.57
2018-12-20T15:11:44.346Z,143.70
2018-12-20T15:14:12.887Z,197.90
2018-12-20T15:16:41.410Z,235.70
2018-12-20T15:19:09.947Z,194.33
2018-12-20T15:21:38.466Z,232.73
2018-12-20T15:24:07.274Z,182.97
2018-12-20T15:26:35.796Z,224.07
2018-12-20T15:29:04.318Z,206.47
2018-12-20T15:31:32.856Z,181.97
2018-12-20T15:34:01.374Z,156.13
2018-12-20T15:36:29.934Z,138.80
2018-12-20T15:38:58.444Z,154.07
2018-12-20T15:41:26.991Z,169.97
2018-12-20T15:43:55.530Z,363.87
2018-12-20T15:46:24.054Z,239.70
2018-12-20T15:48:56.798Z,201.20
2018-12-20T15:51:25.348Z,249.10
2018-12-20T15:53:53.856Z,279.00
2018-12-20T15:56:22.390Z,204.77
2018-12-20T15:58:50.946Z,203.07
2018-12-20T16:01:19.454Z,207.93
2018-12-20T16:03:48.651Z,179.70
2018-12-20T16:06:17.170Z,171.67
2018-12-20T16:08:46.135Z,179.80
2018-12-20T16:11:14.802Z,206.10
2018-12-20T16:13:43.370Z,149.43
2018-12-20T16:16:12.090Z,176.90
2018-12-20T16:18:40.651Z,206.30
2018-12-20T16:21:09.334Z,237.70
2018-12-20T16:23:37.870Z,270.73
2018-12-20T16:26:06.438Z,219.67
2018-12-20T16:28:34.998Z,253.30
2018-12-20T16:31:03.542Z,221.90
2018-12-20T16:33:32.112Z,340.17
2018-12-20T16:36:00.634Z,221.43
2018-12-20T16:38:29.141Z,237.23
2018-12-20T16:40:57.693Z,263.37
2018-12-20T16:43:26.221Z,522.77
2018-12-20T16:45:55.581Z,963.50
2018-12-20T16:48:24.179Z,475.67
2018-12-20T16:50:53.330Z,280.87
2018-12-20T16:53:21.909Z,540.47
2018-12-20T16:55:50.477Z,302.50
2018-12-20T16:58:19.049Z,202.23
2018-12-20T17:00:47.734Z,244.90
2018-12-20T17:03:16.288Z,305.17
2018-12-20T17:05:44.836Z,290.67
2018-12-20T17:08:13.389Z,190.53
2018-12-20T17:10:41.944Z,353.73
2018-12-20T17:13:10.500Z,301.57
2018-12-20T17:15:39.083Z,239.77
2018-12-20T17:18:07.672Z,211.60
2018-12-20T17:20:36.244Z,182.37
2018-12-20T17:23:04.781Z,182.53
2018-12-20T17:25:34.112Z,192.57
2018-12-20T17:28:09.074Z,286.17
2018-12-20T17:30:37.593Z,286.87
2018-12-20T17:33:06.128Z,238.00
2018-12-20T17:35:34.676Z,202.07
2018-12-20T17:38:03.216Z,303.83
2018-12-20T17:40:31.768Z,241.03
2018-12-20T17:43:00.325Z,175.17
2018-12-20T17:45:28.900Z,261.47
2018-12-20T17:47:57.456Z,261.10
2018-12-20T17:50:25.976Z,246.03
2018-12-20T17:52:54.476Z,212.70
2018-12-20T17:55:23.037Z,213.93
2018-12-20T17:57:51.837Z,265.10
2018-12-20T18:00:20.523Z,207.03
2018-12-20T18:02:49.034Z,177.03
2018-12-20T18:05:17.639Z,253.73
2018-12-20T18:07:46.180Z,228.87
2018-12-20T18:10:14.708Z,189.63
2018-12-20T18:12:43.243Z,256.37
2018-12-20T18:15:12.356Z,207.33
2018-12-20T18:17:40.899Z,172.37
2018-12-20T18:20:10.711Z,215.27
2018-12-20T18:22:39.272Z,402.07
2018-12-20T18:25:08.473Z,341.13
2018-12-20T18:27:37.119Z,220.97
2018-12-20T18:30:08.747Z,265.30
2018-12-20T18:32:37.283Z,199.07
2018-12-20T18:35:05.980Z,242.60
2018-12-20T18:37:34.755Z,181.73
2018-12-20T18:40:03.443Z,188.27
2018-12-20T18:42:32.007Z,208.80
2018-12-20T18:45:00.716Z,281.50
2018-12-20T18:47:29.251Z,281.20
2018-12-20T18:49:57.783Z,190.23
2018-12-20T18:52:26.328Z,200.27
2018-12-20T18:54:55.114Z,208.30
2018-12-20T18:57:23.639Z,211.80
2018-12-20T18:59:52.210Z,206.10
2018-12-20T19:02:20.748Z,189.00
2018-12-20T19:04:49.606Z,242.27
2018-12-20T19:07:18.133Z,317.43
2018-12-20T19:09:46.693Z,210.30
2018-12-20T19:12:15.213Z,194.10
2018-12-20T19:14:43.777Z,236.63
2018-12-20T19:17:12.359Z,168.77
2018-12-20T19:19:40.921Z,177.30
2018-12-20T19:22:09.477Z,164.13
2018-12-20T19:24:38.007Z,157.23
2018-12-20T19:27:06.561Z,191.03
2018-12-20T19:29:35.121Z,192.43
2018-12-20T19:32:03.673Z,191.80
2018-12-20T19:34:32.581Z,194.30
2018-12-20T19:37:01.117Z,182.70
2018-12-20T19:39:30.238Z,206.10
2018-12-20T19:42:03.012Z,179.80
2018-12-20T19:44:31.583Z,380.73
2018-12-20T19:47:00.127Z,281.07
2018-12-20T19:49:28.652Z,278.60
2018-12-20T19:51:57.168Z,275.20
2018-12-20T19:54:25.724Z,179.20
2018-12-20T19:56:54.276Z,161.27
2018-12-20T19:59:23.264Z,183.60
2018-12-20T20:01:51.940Z,215.47
2018-12-20T20:04:20.459Z,225.87
2018-12-20T20:06:49.043Z,321.67
2018-12-20T20:09:18.456Z,314.17
2018-12-20T20:11:47.037Z,419.33
2018-12-20T20:14:16.271Z,299.20
2018-12-20T20:16:50.645Z,274.27
2018-12-20T20:19:15.494Z,245.13
2018-12-20T20:21:44.021Z,286.27
2018-12-20T20:24:12.559Z,216.57
2018-12-20T20:26:41.081Z,268.73
2018-12-20T20:29:09.601Z,237.13
2018-12-20T20:31:38.257Z,228.43
2018-12-20T20:34:06.786Z,166.87
2018-12-20T20:36:35.326Z,170.67
2018-12-20T20:39:06.121Z,331.83
2018-12-20T20:41:35.210Z,260.93
2018-12-20T20:44:03.961Z,285.67
2018-12-20T20:46:32.473Z,178.43
2018-12-20T20:49:01.029Z,221.07
2018-12-20T20:51:29.561Z,489.27
2018-12-20T20:53:58.105Z,331.73
2018-12-20T20:56:26.621Z,299.93
2018-12-20T20:58:55.205Z,435.03
2018-12-20T21:01:23.741Z,286.07
2018-12-20T21:03:52.269Z,227.17
2018-12-20T21:06:21.661Z,462.43
2018-12-20T21:08:50.204Z,217.20
2018-12-20T21:11:18.756Z,308.57
2018-12-20T21:13:48.036Z,351.97
2018-12-20T21:16:16.595Z,333.17
2018-12-20T21:18:45.138Z,349.63
2018-12-20T21:21:13.770Z,345.07
2018-12-20T21:23:42.302Z,236.73
2018-12-20T21:26:10.811Z,262.60
2018-12-20T21:28:39.363Z,248.37
2018-12-20T21:31:07.890Z,189.20
2018-12-20T21:33:36.458Z,166.13
2018-12-20T21:36:05.094Z,207.63
2018-12-20T21:38:33.610Z,192.50
2018-12-20T21:41:02.163Z,228.03
2018-12-20T21:43:30.705Z,225.23
2018-12-20T21:45:59.214Z,196.30
2018-12-20T21:48:27.770Z,172.07
2018-12-20T21:50:56.318Z,234.70
2018-12-20T21:53:24.878Z,166.30
2018-12-20T21:55:53.414Z,278.07
2018-12-20T21:58:21.953Z,283.40
2018-12-20T22:00:50.486Z,254.73
2018-12-20T22:03:19.029Z,247.67
2018-12-20T22:05:47.581Z,222.93
2018-12-20T22:08:16.310Z,313.50
2018-12-20T22:10:44.869Z,213.93
2018-12-20T22:13:13.369Z,266.00
2018-12-20T22:15:41.894Z,179.87
2018-12-20T22:18:10.407Z,195.27
2018-12-20T22:20:47.080Z,205.50
2018-12-20T22:23:09.533Z,269.07
2018-12-20T22:25:38.102Z,322.63
2018-12-20T22:28:06.630Z,206.47
2018-12-20T22:30:35.342Z,261.43
2018-12-20T22:33:03.898Z,314.47
2018-12-20T22:35:32.445Z,444.47
2018-12-20T22:38:01.726Z,247.97
2018-12-20T22:40:30.374Z,272.60
2018-12-20T22:42:58.952Z,217.40
2018-12-20T22:45:27.485Z,312.07
2018-12-20T22:47:56.042Z,271.37
2018-12-20T22:50:24.729Z,358.53
2018-12-20T22:52:53.254Z,253.07
2018-12-20T22:55:21.822Z,553.57
2018-12-20T22:57:50.374Z,273.07
2018-12-20T23:00:19.049Z,384.63
2018-12-20T23:02:47.688Z,329.00
2018-12-20T23:05:16.281Z,322.80
2018-12-20T23:07:44.817Z,291.50
2018-12-20T23:10:13.351Z,239.53
2018-12-20T23:12:41.877Z,263.47
2018-12-20T23:15:10.677Z,299.87
2018-12-20T23:17:39.281Z,227.53
2018-12-20T23:20:08.529Z,270.83
2018-12-20T23:22:37.193Z,253.80
2018-12-20T23:25:05.850Z,241.90
2018-12-20T23:27:34.409Z,223.60
2018-12-20T23:30:02.929Z,211.20
2018-12-20T23:32:31.473Z,185.43
2018-12-20T23:35:00.300Z,181.73
2018-12-20T23:37:28.850Z,147.13
2018-12-20T23:39:57.376Z,204.87
2018-12-20T23:42:25.884Z,206.23
2018-12-20T23:44:54.836Z,198.63
2018-12-20T23:47:23.502Z,176.13
2018-12-20T23:49:52.171Z,182.13
2018-12-20T23:52:20.740Z,183.50
2018-12-20T23:54:49.984Z,191.90
2018-12-20T23:57:18.509Z,176.33
2018-12-20T23:59:47.052Z,184.67
